Terminal Aerodrome Forecast
Issued by NWS St Louis, MO

Home | Current Version | Previous Version | Text Only | Print | Product List | Glossary On
Versions: 1 2 3 4 5 6 7 8 9 10 11 12 13 14
000
FTUS43 KLSX 261731
TAFCOU
TAF
KCOU 261731Z 2618/2718 23008KT P6SM BKN200
     FM270300 18004KT P6SM VCTS BKN090CB
     FM270800 20005KT 6SM -SHRA VCTS OVC060CB
     FM271200 22005KT P6SM OVC060=

USA.gov is the U.S. government's official web portal to all federal, state and local government web resources and services.